createdAt,value
2019-05-10T00:00:13.042Z,10.95
2019-05-10T00:03:01.362Z,9.85
2019-05-10T00:05:49.669Z,9.25
2019-05-10T00:08:37.715Z,9.30
2019-05-10T00:11:09.535Z,11.50
2019-05-10T00:13:48.764Z,9.03
2019-05-10T00:16:18.928Z,11.00
2019-05-10T00:18:48.970Z,10.60
2019-05-10T00:21:19.007Z,10.55
2019-05-10T00:23:49.178Z,11.15
2019-05-10T00:26:19.281Z,11.18
2019-05-10T00:28:49.464Z,15.63
2019-05-10T00:31:19.571Z,12.75
2019-05-10T00:33:49.683Z,12.93
2019-05-10T00:36:19.789Z,10.15
2019-05-10T00:38:49.893Z,10.28
2019-05-10T00:41:20.114Z,11.25
2019-05-10T00:43:50.212Z,11.50
2019-05-10T00:46:20.387Z,12.98
2019-05-10T00:48:50.426Z,15.83
2019-05-10T00:51:20.479Z,14.85
2019-05-10T00:53:50.592Z,13.10
2019-05-10T00:56:20.735Z,13.50
2019-05-10T00:58:50.810Z,15.23
2019-05-10T01:01:20.850Z,12.82
2019-05-10T01:03:50.916Z,14.47
2019-05-10T01:06:21.022Z,13.98
2019-05-10T01:08:51.063Z,14.58
2019-05-10T01:11:21.165Z,14.73
2019-05-10T01:13:51.297Z,14.68
2019-05-10T01:16:21.337Z,14.20
2019-05-10T01:18:51.405Z,14.60
2019-05-10T01:21:21.788Z,19.70
2019-05-10T01:23:51.826Z,18.15
2019-05-10T01:26:21.868Z,17.50
2019-05-10T01:28:51.918Z,19.65
2019-05-10T01:31:22.338Z,17.60
2019-05-10T01:33:52.381Z,16.73
2019-05-10T01:36:24.363Z,17.55
2019-05-10T01:38:54.710Z,15.25
2019-05-10T01:41:24.759Z,15.05
2019-05-10T01:43:54.807Z,15.35
2019-05-10T01:46:24.919Z,16.57
2019-05-10T01:48:54.963Z,16.07
2019-05-10T01:51:27.766Z,17.07
2019-05-10T01:53:56.749Z,13.68
2019-05-10T01:56:26.785Z,14.70
2019-05-10T01:58:56.825Z,11.93
2019-05-10T02:01:26.872Z,12.43
2019-05-10T02:03:56.901Z,16.00
2019-05-10T02:06:27.017Z,16.05
2019-05-10T02:08:57.058Z,15.25
2019-05-10T02:11:27.110Z,13.58
2019-05-10T02:13:57.151Z,13.08
2019-05-10T02:16:27.604Z,13.72
2019-05-10T02:18:57.634Z,11.33
2019-05-10T02:21:27.677Z,13.03
2019-05-10T02:23:57.706Z,13.00
2019-05-10T02:26:27.758Z,10.28
2019-05-10T02:28:57.882Z,11.85
2019-05-10T02:31:28.002Z,11.35
2019-05-10T02:33:58.038Z,15.18
2019-05-10T02:36:28.447Z,11.43
2019-05-10T02:38:58.486Z,10.75
2019-05-10T02:41:28.602Z,10.00
2019-05-10T02:44:00.176Z,10.82
2019-05-10T02:46:30.209Z,9.58
2019-05-10T02:49:00.383Z,10.15
2019-05-10T02:51:30.482Z,10.28
2019-05-10T02:54:01.437Z,9.78
2019-05-10T02:56:32.801Z,9.68
2019-05-10T02:59:03.785Z,11.00
2019-05-10T03:01:37.025Z,11.55
2019-05-10T03:04:07.334Z,10.20
2019-05-10T03:06:39.935Z,8.75
2019-05-10T03:09:10.098Z,11.38
2019-05-10T03:11:49.308Z,10.93
2019-05-10T03:14:20.063Z,13.90
2019-05-10T03:16:52.121Z,15.28
2019-05-10T03:19:22.494Z,12.80
2019-05-10T03:22:01.695Z,11.45
2019-05-10T03:24:31.761Z,10.93
2019-05-10T03:27:02.647Z,9.30
2019-05-10T03:29:32.739Z,12.50
2019-05-10T03:32:02.860Z,9.48
2019-05-10T03:34:32.931Z,11.25
2019-05-10T03:37:03.449Z,12.28
2019-05-10T03:39:33.631Z,12.98
2019-05-10T03:42:04.223Z,12.58
2019-05-10T03:44:34.331Z,14.78
2019-05-10T03:47:04.508Z,12.90
2019-05-10T03:49:34.609Z,14.20
2019-05-10T03:52:04.718Z,14.55
2019-05-10T03:54:34.842Z,12.25
2019-05-10T03:57:12.971Z,11.88
2019-05-10T03:59:36.604Z,13.78
2019-05-10T04:02:07.072Z,11.55
2019-05-10T04:04:37.242Z,13.75
2019-05-10T04:07:07.294Z,14.83
2019-05-10T04:09:37.540Z,16.85
2019-05-10T04:12:07.601Z,14.63
2019-05-10T04:14:37.646Z,14.68
2019-05-10T04:17:07.682Z,15.13
2019-05-10T04:19:37.738Z,15.28
2019-05-10T04:22:07.856Z,13.62
2019-05-10T04:24:37.887Z,12.65
2019-05-10T04:27:07.931Z,14.28
2019-05-10T04:29:37.992Z,16.93
2019-05-10T04:32:08.013Z,15.53
2019-05-10T04:34:38.057Z,17.85
2019-05-10T04:37:08.160Z,15.10
2019-05-10T04:39:38.613Z,16.67
2019-05-10T04:42:08.713Z,20.45
2019-05-10T04:44:38.755Z,15.13
2019-05-10T04:47:08.874Z,15.00
2019-05-10T04:49:39.404Z,14.98
2019-05-10T04:52:09.431Z,14.75
2019-05-10T04:54:39.470Z,15.35
2019-05-10T04:57:09.525Z,12.35
2019-05-10T04:59:39.555Z,14.63
2019-05-10T05:02:09.603Z,15.48
2019-05-10T05:04:40.032Z,15.28
2019-05-10T05:07:10.071Z,16.12
2019-05-10T05:09:40.121Z,15.35
2019-05-10T05:12:10.176Z,19.27
2019-05-10T05:14:40.611Z,15.98
2019-05-10T05:17:10.716Z,15.35
2019-05-10T05:19:41.116Z,21.68
2019-05-10T05:22:12.258Z,14.35
2019-05-10T05:24:42.365Z,18.77
2019-05-10T05:27:12.406Z,18.65
2019-05-10T05:29:42.513Z,18.23
2019-05-10T05:32:13.493Z,16.35
2019-05-10T05:34:43.601Z,15.25
2019-05-10T05:37:13.735Z,15.63
2019-05-10T05:39:43.797Z,16.70
2019-05-10T05:42:13.903Z,17.60
2019-05-10T05:44:44.384Z,38.92
2019-05-10T05:47:14.918Z,40.03
2019-05-10T05:49:44.952Z,55.10
2019-05-10T05:52:15.026Z,31.12
2019-05-10T05:54:45.141Z,19.52
2019-05-10T05:57:15.262Z,22.50
2019-05-10T05:59:48.981Z,19.87
2019-05-10T06:02:17.548Z,22.70
2019-05-10T06:04:48.841Z,19.17
2019-05-10T06:07:19.016Z,19.27
2019-05-10T06:09:49.138Z,21.48
2019-05-10T06:12:22.225Z,16.93
2019-05-10T06:14:52.656Z,26.35
2019-05-10T06:17:23.806Z,26.40
2019-05-10T06:19:54.529Z,22.37
2019-05-10T06:22:24.648Z,20.65
2019-05-10T06:24:54.770Z,25.57
2019-05-10T06:27:24.989Z,25.20
2019-05-10T06:29:55.110Z,27.80
2019-05-10T06:32:25.235Z,23.90
2019-05-10T06:34:55.348Z,25.08
2019-05-10T06:37:25.467Z,31.73
2019-05-10T06:39:55.590Z,24.02
2019-05-10T06:42:28.891Z,24.72
2019-05-10T06:44:57.670Z,28.35
2019-05-10T06:47:27.790Z,27.02
2019-05-10T06:49:58.012Z,29.20
2019-05-10T06:52:29.777Z,22.07
2019-05-10T06:54:59.703Z,27.90
2019-05-10T06:57:29.744Z,27.58
2019-05-10T07:00:06.143Z,30.70
2019-05-10T07:02:32.463Z,27.90
2019-05-10T07:05:04.094Z,34.38
2019-05-10T07:07:44.077Z,28.00
2019-05-10T07:10:15.674Z,25.45
2019-05-10T07:12:39.812Z,28.32
2019-05-10T07:15:10.661Z,28.32
2019-05-10T07:17:43.621Z,25.15
2019-05-10T07:20:12.806Z,29.57
2019-05-10T07:22:42.845Z,22.50
2019-05-10T07:25:13.029Z,25.65
2019-05-10T07:27:44.292Z,28.17
2019-05-10T07:30:18.187Z,24.63
2019-05-10T07:32:48.229Z,24.20
2019-05-10T07:35:18.627Z,28.55
2019-05-10T07:37:51.755Z,26.07
2019-05-10T07:40:20.372Z,25.95
2019-05-10T07:42:50.417Z,22.20
2019-05-10T07:45:25.723Z,25.45
2019-05-10T07:47:52.189Z,23.50
2019-05-10T07:50:22.613Z,28.83
2019-05-10T07:52:52.654Z,25.82
2019-05-10T07:55:27.983Z,21.75
2019-05-10T07:57:59.242Z,22.95
2019-05-10T08:00:28.206Z,23.95
2019-05-10T08:03:12.427Z,21.35
2019-05-10T08:05:29.993Z,22.05
2019-05-10T08:08:00.043Z,18.07
2019-05-10T08:10:30.078Z,19.32
2019-05-10T08:13:03.214Z,15.63
2019-05-10T08:15:34.751Z,13.88
2019-05-10T08:18:03.533Z,18.07
2019-05-10T08:20:46.519Z,16.15
2019-05-10T08:23:06.251Z,15.93
2019-05-10T08:25:41.049Z,18.42
2019-05-10T08:28:08.115Z,14.90
2019-05-10T08:30:51.877Z,14.43
2019-05-10T08:33:15.485Z,15.88
2019-05-10T08:35:46.551Z,12.80
2019-05-10T08:38:16.890Z,12.90
2019-05-10T08:40:46.923Z,9.53
2019-05-10T08:43:17.165Z,13.70
2019-05-10T08:45:49.459Z,12.58
2019-05-10T08:48:19.122Z,10.58
2019-05-10T08:50:54.022Z,10.55
2019-05-10T08:53:22.947Z,10.58
2019-05-10T08:55:52.710Z,9.45
2019-05-10T08:58:31.376Z,9.48
2019-05-10T09:01:15.387Z,10.50
2019-05-10T09:03:26.494Z,9.90
2019-05-10T09:05:56.661Z,9.23
2019-05-10T09:08:28.503Z,11.10
2019-05-10T09:10:58.354Z,13.00
2019-05-10T09:13:28.713Z,12.00
2019-05-10T09:16:02.419Z,10.95
2019-05-10T09:18:33.117Z,9.28
2019-05-10T09:21:09.156Z,11.68
2019-05-10T09:23:34.937Z,10.80
2019-05-10T09:26:10.446Z,8.73
2019-05-10T09:28:36.754Z,8.80
2019-05-10T09:31:18.916Z,9.93
2019-05-10T09:33:43.302Z,11.53
2019-05-10T09:36:12.289Z,11.83
2019-05-10T09:38:45.687Z,9.80
2019-05-10T09:41:13.405Z,11.55
2019-05-10T09:43:48.842Z,11.40
2019-05-10T09:46:15.203Z,13.65
2019-05-10T09:48:45.357Z,10.28
2019-05-10T09:51:19.241Z,10.50
2019-05-10T09:53:48.544Z,12.75
2019-05-10T09:56:18.913Z,10.63
2019-05-10T09:58:48.990Z,13.48
2019-05-10T10:01:21.785Z,19.35
2019-05-10T10:03:50.836Z,10.85
2019-05-10T10:06:21.006Z,13.72
2019-05-10T10:08:53.306Z,11.08
2019-05-10T10:11:22.968Z,13.22
2019-05-10T10:13:59.656Z,12.28
2019-05-10T10:16:24.666Z,18.55
2019-05-10T10:18:54.772Z,15.53
2019-05-10T10:21:30.475Z,12.35
2019-05-10T10:23:57.411Z,9.75
2019-05-10T10:26:28.198Z,14.68
2019-05-10T10:29:00.155Z,10.30
2019-05-10T10:31:33.308Z,15.10
2019-05-10T10:34:03.123Z,9.80
2019-05-10T10:36:33.497Z,12.40
2019-05-10T10:39:04.865Z,12.50
2019-05-10T10:41:34.978Z,14.60
2019-05-10T10:44:05.030Z,12.98
2019-05-10T10:46:35.198Z,15.08
2019-05-10T10:49:05.669Z,14.68
2019-05-10T10:51:37.778Z,11.18
2019-05-10T10:54:07.571Z,11.68
2019-05-10T10:56:38.342Z,14.23
2019-05-10T10:59:08.390Z,13.20
2019-05-10T11:01:49.903Z,11.95
2019-05-10T11:04:10.549Z,11.15
2019-05-10T11:06:40.662Z,11.18
2019-05-10T11:09:10.794Z,12.63
2019-05-10T11:11:44.419Z,12.10
2019-05-10T11:14:12.502Z,9.93
2019-05-10T11:16:46.707Z,10.35
2019-05-10T11:19:15.788Z,11.53
2019-05-10T11:21:46.053Z,13.05
2019-05-10T11:24:18.585Z,11.03
2019-05-10T11:26:47.752Z,11.30
2019-05-10T11:29:25.401Z,12.13
2019-05-10T11:32:10.728Z,10.68
2019-05-10T11:34:21.745Z,10.25
2019-05-10T11:36:51.854Z,10.32
2019-05-10T11:39:26.455Z,11.35
2019-05-10T11:42:02.405Z,10.60
2019-05-10T11:44:26.018Z,13.20
2019-05-10T11:46:56.089Z,10.23
2019-05-10T11:49:26.272Z,10.60
2019-05-10T11:51:58.711Z,14.33
2019-05-10T11:54:31.696Z,12.00
2019-05-10T11:57:06.123Z,10.68
2019-05-10T11:59:33.764Z,9.55
2019-05-10T12:02:09.014Z,11.88
2019-05-10T12:07:12.037Z,9.73
2019-05-10T12:09:42.541Z,13.28
2019-05-10T12:12:12.235Z,9.20
2019-05-10T12:14:43.658Z,13.90
2019-05-10T12:17:14.545Z,7.47
2019-05-10T12:19:50.459Z,10.48
2019-05-10T12:22:17.531Z,14.75
2019-05-10T12:25:06.134Z,11.88
2019-05-10T12:26:16.688Z,8.13
2019-05-10T12:27:28.605Z,12.23
2019-05-10T12:29:55.878Z,9.75
2019-05-10T12:32:26.965Z,11.35
2019-05-10T12:34:56.608Z,12.63
2019-05-10T12:37:26.246Z,10.30
2019-05-10T12:39:56.286Z,13.32
2019-05-10T12:42:26.318Z,14.75
2019-05-10T12:44:56.361Z,9.60
2019-05-10T12:47:26.385Z,12.65
2019-05-10T12:50:02.064Z,12.43
2019-05-10T12:52:29.013Z,10.82
2019-05-10T12:55:00.251Z,11.30
2019-05-10T12:57:30.378Z,9.70
2019-05-10T13:00:00.415Z,10.63
2019-05-10T13:02:30.445Z,6.40
2019-05-10T13:05:00.559Z,11.93
2019-05-10T13:07:30.589Z,7.15
2019-05-10T13:10:04.209Z,8.70
2019-05-10T13:12:36.921Z,7.90
2019-05-10T13:15:06.938Z,8.25
2019-05-10T13:17:36.970Z,8.53
2019-05-10T13:20:08.645Z,9.30
2019-05-10T13:22:39.568Z,8.38
2019-05-10T13:25:09.889Z,8.65
2019-05-10T13:27:39.890Z,8.48
2019-05-10T13:30:10.549Z,9.98
2019-05-10T13:32:40.585Z,11.60
2019-05-10T13:35:11.750Z,7.75
2019-05-10T13:37:41.777Z,8.85
2019-05-10T13:40:12.240Z,9.40
2019-05-10T13:42:45.809Z,8.38
2019-05-10T13:45:14.133Z,8.10
2019-05-10T13:47:44.162Z,10.70
2019-05-10T13:50:14.441Z,6.90
2019-05-10T13:52:44.465Z,6.67
2019-05-10T13:55:14.654Z,9.45
2019-05-10T13:57:44.679Z,8.50
2019-05-10T14:00:15.250Z,9.10
2019-05-10T14:02:45.282Z,6.65
2019-05-10T14:05:17.667Z,8.20
2019-05-10T14:07:51.996Z,8.13
2019-05-10T14:10:23.364Z,6.35
2019-05-10T14:12:50.659Z,7.95
2019-05-10T14:15:20.857Z,8.43
2019-05-10T14:17:50.892Z,8.38
2019-05-10T14:20:25.293Z,8.90
2019-05-10T14:22:56.032Z,5.30
2019-05-10T14:25:29.475Z,8.48
2019-05-10T14:27:56.534Z,8.43
2019-05-10T14:30:26.561Z,6.58
2019-05-10T14:32:56.601Z,8.20
2019-05-10T14:35:26.617Z,7.55
2019-05-10T14:38:06.922Z,7.75
2019-05-10T14:40:30.633Z,6.15
2019-05-10T14:43:00.477Z,8.28
2019-05-10T14:45:30.503Z,5.55
2019-05-10T14:48:00.542Z,9.30
2019-05-10T14:50:30.640Z,9.28
2019-05-10T14:53:00.680Z,6.75
2019-05-10T14:55:34.648Z,7.47
2019-05-10T14:58:02.347Z,6.72
2019-05-10T15:00:32.444Z,4.78
2019-05-10T15:03:03.815Z,10.20
2019-05-10T15:05:36.357Z,7.12
2019-05-10T15:08:05.634Z,6.80
2019-05-10T15:10:39.435Z,6.85
2019-05-10T15:13:07.459Z,7.37
2019-05-10T15:15:38.734Z,4.03
2019-05-10T15:18:08.897Z,8.05
2019-05-10T15:20:38.933Z,5.33
2019-05-10T15:23:08.983Z,5.75
2019-05-10T15:25:55.437Z,5.83
2019-05-10T15:28:10.669Z,6.08
2019-05-10T15:30:45.754Z,4.75
2019-05-10T15:33:12.414Z,6.50
2019-05-10T15:35:45.582Z,4.92
2019-05-10T15:38:14.170Z,6.08
2019-05-10T15:40:45.865Z,4.45
2019-05-10T15:43:16.875Z,7.40
2019-05-10T15:45:52.455Z,3.92
2019-05-10T15:48:19.786Z,5.12
2019-05-10T15:50:49.849Z,4.33
2019-05-10T15:53:25.593Z,4.75
2019-05-10T15:55:51.611Z,5.45
2019-05-10T15:58:21.632Z,5.42
2019-05-10T16:00:51.656Z,5.72
2019-05-10T16:03:21.687Z,3.30
2019-05-10T16:06:00.404Z,3.30
2019-05-10T16:08:23.882Z,6.17
2019-05-10T16:10:55.030Z,13.10
2019-05-10T16:13:25.334Z,5.22
2019-05-10T16:15:57.559Z,7.65
2019-05-10T16:18:33.430Z,4.72
2019-05-10T16:20:59.820Z,9.73
2019-05-10T16:23:29.916Z,5.50
2019-05-10T16:26:00.445Z,4.62
2019-05-10T16:28:30.771Z,3.15
2019-05-10T16:31:00.890Z,5.65
2019-05-10T16:33:31.009Z,4.28
2019-05-10T16:36:01.067Z,5.58
2019-05-10T16:38:31.147Z,4.05
2019-05-10T16:41:01.266Z,4.53
2019-05-10T16:43:31.418Z,6.17
2019-05-10T16:46:01.475Z,5.80
2019-05-10T16:48:31.727Z,4.37
2019-05-10T16:51:03.755Z,5.15
2019-05-10T16:53:37.728Z,4.03
2019-05-10T16:56:05.216Z,4.62
2019-05-10T16:58:35.301Z,8.23
2019-05-10T17:01:05.409Z,4.17
2019-05-10T17:03:35.438Z,5.03
2019-05-10T17:06:05.796Z,7.90
2019-05-10T17:08:38.644Z,5.60
2019-05-10T17:11:10.110Z,5.00
2019-05-10T17:13:41.629Z,5.20
2019-05-10T17:16:16.384Z,9.73
2019-05-10T17:18:43.301Z,5.92
2019-05-10T17:21:13.329Z,4.92
2019-05-10T17:23:46.862Z,5.17
2019-05-10T17:26:15.013Z,7.17
2019-05-10T17:28:45.050Z,6.33
2019-05-10T17:31:15.082Z,5.15
2019-05-10T17:33:45.113Z,8.78
2019-05-10T17:36:19.767Z,3.70
2019-05-10T17:38:53.195Z,4.12
2019-05-10T17:41:19.442Z,5.55
2019-05-10T17:43:50.545Z,6.58
2019-05-10T17:46:21.142Z,5.45
2019-05-10T17:48:51.310Z,6.00
2019-05-10T17:51:21.408Z,7.35
2019-05-10T17:53:54.897Z,9.10
2019-05-10T17:56:23.205Z,6.00
2019-05-10T17:58:54.305Z,12.45
2019-05-10T18:01:24.337Z,12.33
2019-05-10T18:03:55.343Z,14.30
2019-05-10T18:06:25.374Z,12.18
2019-05-10T18:08:55.414Z,15.08
2019-05-10T18:11:25.455Z,10.90
2019-05-10T18:13:55.501Z,12.55
2019-05-10T18:16:25.540Z,15.15
2019-05-10T18:18:55.932Z,10.48
2019-05-10T18:21:25.971Z,12.10
2019-05-10T18:23:58.335Z,17.23
2019-05-10T18:26:28.350Z,15.28
2019-05-10T18:28:58.377Z,18.73
2019-05-10T18:31:28.413Z,14.20
2019-05-10T18:34:00.173Z,15.95
2019-05-10T18:36:50.457Z,10.72
2019-05-10T18:39:01.962Z,11.28
2019-05-10T18:41:32.260Z,6.17
2019-05-10T18:44:02.293Z,6.78
2019-05-10T18:46:32.322Z,8.00
2019-05-10T18:49:03.153Z,8.85
2019-05-10T18:51:34.611Z,10.48
2019-05-10T18:54:05.067Z,10.10
2019-05-10T18:56:35.107Z,9.25
2019-05-10T18:59:07.482Z,7.97
2019-05-10T19:01:38.669Z,10.40
2019-05-10T19:04:14.033Z,9.40
2019-05-10T19:06:44.207Z,11.10
2019-05-10T19:09:12.663Z,8.70
2019-05-10T19:11:42.746Z,4.42
2019-05-10T19:14:13.359Z,7.75
2019-05-10T19:16:43.556Z,5.40
2019-05-10T19:19:13.650Z,13.15
2019-05-10T19:21:44.070Z,7.12
2019-05-10T19:24:14.102Z,5.65
2019-05-10T19:26:45.237Z,6.50
2019-05-10T19:29:15.262Z,4.92
2019-05-10T19:31:45.372Z,5.78
2019-05-10T19:34:17.202Z,8.50
2019-05-10T19:36:47.047Z,6.15
2019-05-10T19:39:17.223Z,9.58
2019-05-10T19:41:50.353Z,7.03
2019-05-10T19:44:20.387Z,7.28
2019-05-10T19:46:50.491Z,8.48
2019-05-10T19:49:20.590Z,7.55
2019-05-10T19:51:50.622Z,10.78
2019-05-10T19:54:21.312Z,6.72
2019-05-10T19:56:55.252Z,9.05
2019-05-10T19:59:25.767Z,12.23
2019-05-10T20:01:55.793Z,5.12
2019-05-10T20:04:25.903Z,7.28
2019-05-10T20:06:55.931Z,6.90
2019-05-10T20:09:25.961Z,6.05
2019-05-10T20:11:56.082Z,6.50
2019-05-10T20:14:26.121Z,10.05
2019-05-10T20:16:56.151Z,9.38
2019-05-10T20:19:26.262Z,9.20
2019-05-10T20:21:56.286Z,8.08
2019-05-10T20:24:29.099Z,6.10
2019-05-10T20:26:59.490Z,10.65
2019-05-10T20:29:29.584Z,9.20
2019-05-10T20:31:59.651Z,8.08
2019-05-10T20:34:29.789Z,10.68
2019-05-10T20:36:59.826Z,10.72
2019-05-10T20:39:29.849Z,8.25
2019-05-10T20:41:59.890Z,11.33
2019-05-10T20:44:29.987Z,8.78
2019-05-10T20:47:00.161Z,7.83
2019-05-10T20:49:33.074Z,11.05
2019-05-10T20:52:03.310Z,7.08
2019-05-10T20:54:33.435Z,8.95
2019-05-10T20:57:03.554Z,11.08
2019-05-10T20:59:33.582Z,6.75
2019-05-10T21:02:03.618Z,8.15
2019-05-10T21:04:33.749Z,9.10
2019-05-10T21:07:03.800Z,10.45
2019-05-10T21:09:33.827Z,11.85
2019-05-10T21:12:04.043Z,8.13
2019-05-10T21:14:34.073Z,9.65
2019-05-10T21:17:04.533Z,8.48
2019-05-10T21:19:34.549Z,9.75
2019-05-10T21:22:04.725Z,7.45
2019-05-10T21:24:35.191Z,15.23
2019-05-10T21:27:06.302Z,8.85
2019-05-10T21:29:36.337Z,10.23
2019-05-10T21:32:06.571Z,7.97
2019-05-10T21:34:36.752Z,8.13
2019-05-10T21:37:06.783Z,11.35
2019-05-10T21:39:37.145Z,8.68
2019-05-10T21:42:07.162Z,11.53
2019-05-10T21:44:37.200Z,8.55
2019-05-10T21:47:07.227Z,10.75
2019-05-10T21:49:37.261Z,8.45
2019-05-10T21:52:07.367Z,9.88
2019-05-10T21:54:37.404Z,8.83
2019-05-10T21:57:07.486Z,9.33
2019-05-10T21:59:37.563Z,5.92
2019-05-10T22:02:07.802Z,6.00
2019-05-10T22:04:37.837Z,8.53
2019-05-10T22:07:09.011Z,9.43
2019-05-10T22:09:39.089Z,11.25
2019-05-10T22:12:09.189Z,10.10
2019-05-10T22:14:39.235Z,11.03
2019-05-10T22:17:09.654Z,9.33
2019-05-10T22:19:39.681Z,9.25
2019-05-10T22:22:09.919Z,11.45
2019-05-10T22:24:39.991Z,12.90
2019-05-10T22:27:09.993Z,9.68
2019-05-10T22:29:40.015Z,9.70
2019-05-10T22:32:10.122Z,10.72
2019-05-10T22:34:40.203Z,12.10
2019-05-10T22:37:10.311Z,9.80
2019-05-10T22:39:40.340Z,6.30
2019-05-10T22:42:10.450Z,13.25
2019-05-10T22:44:40.480Z,6.67
2019-05-10T22:47:10.587Z,13.30
2019-05-10T22:49:40.677Z,9.53
2019-05-10T22:52:10.714Z,11.43
2019-05-10T22:54:40.742Z,8.68
2019-05-10T22:57:10.837Z,8.13
2019-05-10T22:59:40.899Z,10.03
2019-05-10T23:02:10.947Z,10.20
2019-05-10T23:04:41.309Z,9.95
2019-05-10T23:07:11.334Z,10.80
2019-05-10T23:09:41.362Z,6.58
2019-05-10T23:12:11.398Z,12.93
2019-05-10T23:14:41.562Z,7.42
2019-05-10T23:17:12.672Z,14.85
2019-05-10T23:19:42.700Z,8.83
2019-05-10T23:22:12.829Z,8.73
2019-05-10T23:24:45.783Z,10.53
2019-05-10T23:27:15.821Z,11.90
2019-05-10T23:29:45.853Z,13.28
2019-05-10T23:32:16.229Z,10.70
2019-05-10T23:34:46.634Z,10.10
2019-05-10T23:37:16.671Z,9.35
2019-05-10T23:39:46.700Z,12.93
2019-05-10T23:42:16.754Z,9.28
2019-05-10T23:44:46.771Z,14.30
2019-05-10T23:47:18.392Z,14.95
2019-05-10T23:49:48.478Z,11.73
2019-05-10T23:52:18.605Z,10.53
2019-05-10T23:54:48.658Z,8.50
2019-05-10T23:57:18.693Z,10.65
2019-05-10T23:59:49.870Z,10.45
